Time;durP1;ratioP1;P1;durP2;ratioP2;P2;SDS_P1;SDS_P2;PMS_P1;PMS_P2;Temp;Humidity;BMP_temperature;BMP_pressure;BME280_temperature;BME280_humidity;BME280_pressure;Samples;Min_cycle;Max_cycle;Signal;HPM_P1;HPM_P2
2022/02/12 00:00:58;;;;;;;10.15;3.22;;;;;;;5.91;52.57;102912.09;5035598;28;99118;-71
2022/02/12 00:03:25;;;;;;;13.52;3.00;;;;;;;5.99;52.92;102914.00;5041487;28;98885;-73
2022/02/12 00:05:51;;;;;;;8.63;1.92;;;;;;;6.43;51.58;102913.88;5039012;28;97193;-72
2022/02/12 00:08:18;;;;;;;10.20;2.15;;;;;;;5.78;53.32;102924.06;5030793;28;96961;-70
2022/02/12 00:10:44;;;;;;;8.85;1.83;;;;;;;5.53;54.45;102933.22;5034177;28;99232;-70
2022/02/12 00:13:11;;;;;;;10.88;2.53;;;;;;;5.89;54.02;102925.22;5036355;27;99365;-70
2022/02/12 00:15:38;;;;;;;7.25;1.95;;;;;;;5.77;54.71;102926.69;5036856;28;96865;-71
2022/02/12 00:18:06;;;;;;;6.28;1.90;;;;;;;5.68;54.40;102923.88;5037070;27;97477;-70
2022/02/12 00:20:32;;;;;;;9.93;2.50;;;;;;;5.39;55.24;102933.78;5037241;28;99539;-71
2022/02/12 00:22:59;;;;;;;10.00;2.33;;;;;;;6.06;53.79;102929.84;5040272;28;97892;-70
2022/02/12 00:25:25;;;;;;;9.13;2.30;;;;;;;6.04;54.29;102936.84;5040312;28;96727;-71
2022/02/12 00:27:52;;;;;;;10.30;2.58;;;;;;;5.85;53.72;102936.44;5035112;28;96952;-71
2022/02/12 00:30:18;;;;;;;8.75;2.25;;;;;;;6.38;53.26;102944.41;5039383;28;98767;-70
2022/02/12 00:32:45;;;;;;;4.90;1.88;;;;;;;5.92;54.00;102942.72;5035725;28;99190;-72
2022/02/12 00:35:13;;;;;;;8.70;2.15;;;;;;;6.19;53.58;102947.59;5040699;27;97121;-71
2022/02/12 00:37:39;;;;;;;13.05;2.88;;;;;;;6.28;53.43;102940.78;5032288;28;96805;-70
2022/02/12 00:40:06;;;;;;;8.00;2.58;;;;;;;6.47;52.95;102949.84;5029058;28;99076;-71
2022/02/12 00:42:33;;;;;;;9.38;2.53;;;;;;;6.63;52.30;102950.97;5032524;27;98823;-70
2022/02/12 00:45:00;;;;;;;10.52;2.30;;;;;;;6.37;52.73;102953.16;5028243;28;96721;-70
2022/02/12 00:47:28;;;;;;;11.98;2.60;;;;;;;6.05;54.22;102957.84;5028300;28;99053;-71
2022/02/12 00:49:54;;;;;;;9.77;2.20;;;;;;;6.42;53.28;102950.63;5034414;28;99627;-70
2022/02/12 00:52:22;;;;;;;9.57;2.50;;;;;;;6.46;53.10;102947.19;5027807;27;98958;-71
2022/02/12 00:54:48;;;;;;;7.53;2.58;;;;;;;6.11;53.54;102949.19;5030722;28;97047;-70
2022/02/12 00:57:15;;;;;;;8.80;2.20;;;;;;;5.96;54.27;102952.44;5032984;28;96840;-71
2022/02/12 00:59:41;;;;;;;9.35;2.30;;;;;;;5.76;54.43;102959.03;5032114;28;99300;-71
2022/02/12 01:02:08;;;;;;;10.10;2.22;;;;;;;5.65;55.31;102958.78;5034058;28;99459;-71
2022/02/12 01:04:34;;;;;;;14.43;2.72;;;;;;;5.90;53.99;102958.47;5031849;28;96891;-71
2022/02/12 01:07:00;;;;;;;7.13;2.45;;;;;;;6.26;53.09;102962.59;5030207;28;96907;-70
2022/02/12 01:09:28;;;;;;;14.07;2.10;;;;;;;6.24;53.41;102972.19;5031244;28;99723;-71
2022/02/12 01:11:54;;;;;;;12.77;3.03;;;;;;;6.09;53.98;102974.56;5031222;28;99464;-71
2022/02/12 01:14:21;;;;;;;8.63;2.60;;;;;;;6.28;53.13;102974.03;5034895;28;96788;-70
2022/02/12 01:16:47;;;;;;;10.50;2.58;;;;;;;6.27;52.93;102982.75;5031369;28;97531;-69
2022/02/12 01:19:14;;;;;;;11.00;3.03;;;;;;;6.12;53.39;102974.59;5032410;28;97136;-70
2022/02/12 01:21:40;;;;;;;12.70;3.25;;;;;;;5.99;53.57;102977.00;5027460;28;101130;-71
2022/02/12 01:24:07;;;;;;;10.85;2.60;;;;;;;6.19;53.11;102982.59;5032488;28;96951;-72
2022/02/12 01:26:35;;;;;;;6.65;2.50;;;;;;;6.17;53.66;102972.97;5032218;27;97503;-72
2022/02/12 01:29:01;;;;;;;7.15;2.28;;;;;;;6.17;53.29;102975.59;5032809;28;102516;-73
2022/02/12 01:31:28;;;;;;;8.07;2.53;;;;;;;6.33;52.79;102977.59;5029700;28;100848;-69
2022/02/12 01:33:54;;;;;;;18.17;2.95;;;;;;;6.45;52.69;102971.66;5033772;28;97161;-71
2022/02/12 01:36:20;;;;;;;9.55;2.70;;;;;;;6.34;52.61;102985.50;5027987;28;96754;-74
2022/02/12 01:38:47;;;;;;;10.80;2.15;;;;;;;6.12;53.11;102982.47;5032518;28;99294;-71
2022/02/12 01:41:13;;;;;;;16.65;2.50;;;;;;;6.31;52.47;102985.44;5031935;28;99084;-72
2022/02/12 01:43:41;;;;;;;6.75;2.00;;;;;;;6.32;52.69;102983.69;5033793;28;97013;-71
2022/02/12 01:46:07;;;;;;;12.65;2.40;;;;;;;6.22;52.74;102979.16;5028436;28;97137;-70
2022/02/12 01:48:34;;;;;;;7.13;2.10;;;;;;;6.37;52.43;102979.41;5031550;28;99017;-71
2022/02/12 01:51:02;;;;;;;10.05;2.35;;;;;;;6.26;52.59;102978.34;5025946;27;99305;-70
2022/02/12 01:53:28;;;;;;;7.93;2.00;;;;;;;6.29;52.45;102988.91;5031925;28;97387;-71
2022/02/12 01:55:55;;;;;;;7.43;2.03;;;;;;;6.18;52.95;102985.19;5032463;27;97052;-71
2022/02/12 01:58:21;;;;;;;7.47;2.47;;;;;;;6.19;52.53;102977.34;5045759;22;99309;-76
2022/02/12 02:00:50;;;;;;;13.65;2.63;;;;;;;6.09;52.78;102985.06;5032780;28;99028;-77
2022/02/12 02:03:16;;;;;;;7.45;2.15;;;;;;;5.97;53.02;102989.19;5035927;28;96940;-78
2022/02/12 02:05:42;;;;;;;5.65;1.95;;;;;;;5.98;53.04;102987.44;5054230;28;96892;-77
2022/02/12 02:08:09;;;;;;;7.80;2.72;;;;;;;6.13;52.80;102989.47;5057676;27;98226;-77
2022/02/12 02:10:35;;;;;;;7.22;1.90;;;;;;;6.19;52.75;102990.47;5057027;27;98255;-77
2022/02/12 02:13:01;;;;;;;9.63;2.88;;;;;;;5.91;53.36;102994.31;5056323;27;97798;-76
2022/02/12 02:15:29;;;;;;;5.72;1.88;;;;;;;5.99;52.74;102992.75;5058466;27;96504;-76
2022/02/12 02:17:57;;;;;;;11.52;2.30;;;;;;;6.07;52.95;103002.50;5056778;27;98424;-76
2022/02/12 02:20:24;;;;;;;10.00;2.25;;;;;;;5.86;53.22;103009.06;5049269;27;98040;-77
2022/02/12 02:22:53;;;;;;;11.15;2.33;;;;;;;5.68;53.91;102999.94;5038457;27;97467;-77
2022/02/12 02:25:19;;;;;;;10.38;2.70;;;;;;;5.71;54.03;103003.50;5035046;27;96989;-77
2022/02/12 02:27:46;;;;;;;7.82;2.20;;;;;;;5.96;53.41;103003.19;5039565;27;98312;-77
2022/02/12 02:30:14;;;;;;;21.75;2.55;;;;;;;5.94;53.25;102999.66;5036804;27;98440;-77
2022/02/12 02:32:41;;;;;;;10.90;2.38;;;;;;;5.71;53.40;102994.78;5041010;27;97738;-77
2022/02/12 02:35:09;;;;;;;10.68;3.95;;;;;;;5.63;53.67;103001.59;5031216;27;97822;-76
2022/02/12 02:37:35;;;;;;;9.75;2.45;;;;;;;5.74;53.88;102990.47;5034234;27;97971;-77
2022/02/12 02:40:09;;;;;;;8.50;2.47;;;;;;;5.81;53.53;102994.97;5035368;27;99519;-77
2022/02/12 02:42:36;;;;;;;8.35;2.60;;;;;;;5.76;53.21;102994.00;5030741;27;97375;-75
2022/02/12 02:45:02;;;;;;;11.88;2.58;;;;;;;5.83;53.37;102995.03;5033197;27;96991;-76
2022/02/12 02:47:40;;;;;;;14.40;2.55;;;;;;;5.75;53.62;102996.59;5028403;27;101617;-76
2022/02/12 02:55:59;;;;;;;14.55;2.30;;;;;;;5.63;53.89;102992.00;5034718;27;99096;-76
2022/02/12 02:58:23;;;;;;;8.82;2.42;;;;;;;5.71;53.62;102981.66;5032421;27;97114;-77
2022/02/12 03:00:50;;;;;;;9.98;2.50;;;;;;;5.55;54.51;102993.56;5034768;27;99446;-77
2022/02/12 03:03:16;;;;;;;9.45;2.13;;;;;;;5.68;53.80;103000.84;5033486;28;96752;-77
2022/02/12 03:05:42;;;;;;;15.77;2.30;;;;;;;5.71;53.57;103000.88;5036524;27;97001;-76
2022/02/12 03:08:09;;;;;;;13.13;2.80;;;;;;;5.72;53.45;102991.28;5028017;27;99667;-77
2022/02/12 03:10:35;;;;;;;13.13;3.10;;;;;;;5.60;53.77;102989.28;5031466;27;99525;-77
2022/02/12 03:13:03;;;;;;;17.83;2.35;;;;;;;5.73;53.31;102988.69;5035640;27;99385;-77
2022/02/12 03:15:29;;;;;;;10.30;2.63;;;;;;;5.68;53.66;102989.47;5037402;27;96902;-77
2022/02/12 03:17:56;;;;;;;11.82;2.47;;;;;;;5.71;53.48;102990.38;5041587;27;99287;-77
2022/02/12 03:20:22;;;;;;;13.10;2.40;;;;;;;5.71;53.86;102990.38;5039161;27;99381;-75
2022/02/12 03:22:49;;;;;;;8.05;2.22;;;;;;;5.39;54.74;102994.09;5039554;27;97048;-76
2022/02/12 03:25:15;;;;;;;11.65;2.42;;;;;;;5.51;53.97;102997.00;5042048;27;97397;-76
2022/02/12 03:27:41;;;;;;;10.70;2.67;;;;;;;5.54;54.38;102992.69;5040860;27;99057;-76
2022/02/12 03:30:10;;;;;;;11.25;2.80;;;;;;;5.70;54.19;103003.50;5039895;27;99494;-76
2022/02/12 03:32:36;;;;;;;13.95;2.33;;;;;;;5.26;54.96;102998.19;5036724;28;97036;-76
2022/02/12 03:35:03;;;;;;;12.15;2.30;;;;;;;5.58;54.15;103009.34;5035893;27;97691;-76
2022/02/12 03:37:29;;;;;;;13.85;2.92;;;;;;;5.39;54.55;103007.19;5042864;27;99671;-75
2022/02/12 03:39:55;;;;;;;10.82;3.25;;;;;;;5.51;53.97;103005.72;5042772;27;99550;-75
2022/02/12 03:42:22;;;;;;;7.70;2.58;;;;;;;5.48;53.78;103003.03;5049071;27;96971;-76
2022/02/12 03:44:49;;;;;;;13.18;2.47;;;;;;;5.66;54.04;103010.41;5050766;27;97107;-76
2022/02/12 03:47:17;;;;;;;11.80;3.45;;;;;;;5.25;54.67;103003.41;5049050;27;100287;-75
2022/02/12 03:49:44;;;;;;;13.18;2.10;;;;;;;5.34;55.26;103008.84;5051476;27;99198;-76
2022/02/12 03:52:10;;;;;;;19.70;2.78;;;;;;;5.46;54.49;103004.75;5043460;27;98761;-77
2022/02/12 03:54:36;;;;;;;10.25;3.00;;;;;;;5.49;54.96;103002.19;5055412;27;96430;-77
2022/02/12 03:57:03;;;;;;;9.93;2.17;;;;;;;5.50;54.49;102995.22;5054989;27;99909;-77
2022/02/12 03:59:29;;;;;;;8.20;2.47;;;;;;;5.51;54.75;102991.75;5051945;27;97834;-77
2022/02/12 04:01:56;;;;;;;12.30;2.80;;;;;;;5.30;54.80;102993.91;5041745;27;96789;-78
2022/02/12 04:04:24;;;;;;;13.25;3.22;;;;;;;5.25;54.87;102987.69;5037621;27;96853;-77
2022/02/12 04:06:50;;;;;;;10.35;2.67;;;;;;;5.32;55.40;102997.41;5034764;27;100220;-77
2022/02/12 04:09:17;;;;;;;11.68;3.03;;;;;;;5.38;54.75;102992.34;5035936;27;98134;-78
2022/02/12 04:11:43;;;;;;;6.32;2.80;;;;;;;5.39;55.10;102996.72;5042818;27;96782;-78
2022/02/12 04:14:09;;;;;;;12.38;2.90;;;;;;;5.49;54.71;102989.09;5039174;27;96931;-78
2022/02/12 04:16:36;;;;;;;12.88;2.70;;;;;;;5.40;54.69;102995.84;5053567;27;98934;-77
2022/02/12 04:19:02;;;;;;;13.10;3.22;;;;;;;5.56;54.32;102990.09;5059121;27;97674;-78
2022/02/12 04:21:30;;;;;;;11.10;2.35;;;;;;;5.56;54.38;102988.38;5057011;27;98174;-80
2022/02/12 04:23:57;;;;;;;11.20;2.50;;;;;;;5.48;54.45;102989.06;5039324;27;99084;-77
2022/02/12 04:26:23;;;;;;;13.90;3.85;;;;;;;5.39;54.74;102979.25;5035487;27;99821;-77
2022/02/12 04:28:50;;;;;;;12.80;3.03;;;;;;;5.34;54.90;102985.25;5038448;27;99229;-77
2022/02/12 04:31:16;;;;;;;12.05;2.65;;;;;;;5.36;54.86;102978.31;5044966;27;96802;-77
2022/02/12 04:33:43;;;;;;;8.13;2.58;;;;;;;5.33;54.45;102980.84;5036152;27;99155;-77
2022/02/12 04:36:09;;;;;;;18.35;3.08;;;;;;;5.46;54.82;102981.13;5033092;27;101869;-77
2022/02/12 04:38:38;;;;;;;14.98;2.58;;;;;;;5.51;54.44;102981.25;5035280;27;99469;-77
2022/02/12 04:41:04;;;;;;;13.27;3.03;;;;;;;5.43;54.37;102986.34;5036721;27;97648;-78
2022/02/12 04:43:31;;;;;;;13.93;3.10;;;;;;;5.36;55.14;102983.56;5035762;27;97798;-78
2022/02/12 04:45:57;;;;;;;17.38;3.53;;;;;;;5.37;54.82;102980.97;5037992;27;99356;-78
2022/02/12 04:48:24;;;;;;;9.38;3.17;;;;;;;5.20;54.84;102983.22;5041291;27;98076;-78
2022/02/12 04:50:50;;;;;;;14.40;3.10;;;;;;;5.34;55.15;102985.25;5032508;27;97007;-78
2022/02/12 04:53:17;;;;;;;10.23;2.63;;;;;;;5.46;54.36;102988.13;5041772;27;97576;-77
2022/02/12 04:55:44;;;;;;;13.88;3.25;;;;;;;5.16;55.32;102983.13;5041643;27;99602;-77
2022/02/12 04:58:11;;;;;;;9.52;3.00;;;;;;;5.26;55.56;102985.06;5038274;27;97863;-78
2022/02/12 05:00:37;;;;;;;11.95;3.88;;;;;;;5.27;54.98;102985.97;5034110;27;96814;-75
2022/02/12 05:03:03;;;;;;;9.75;3.00;;;;;;;5.43;54.21;102974.97;5040454;27;96816;-75
2022/02/12 05:05:29;;;;;;;13.82;3.22;;;;;;;5.32;55.08;102987.81;5033856;27;98888;-75
2022/02/12 05:07:56;;;;;;;16.15;2.88;;;;;;;5.18;55.38;102973.56;5039694;27;99362;-76
2022/02/12 05:10:22;;;;;;;8.73;3.13;;;;;;;5.38;54.59;102979.22;5032689;27;98126;-76
2022/02/12 05:12:50;;;;;;;16.88;4.25;;;;;;;5.17;54.88;102983.16;5038204;27;96803;-76
2022/02/12 05:15:16;;;;;;;17.50;4.70;;;;;;;5.28;54.95;102979.88;5034061;27;99567;-75
2022/02/12 05:17:43;;;;;;;12.88;3.10;;;;;;;5.23;55.38;102979.78;5038926;27;99061;-76
2022/02/12 05:20:10;;;;;;;14.68;3.50;;;;;;;5.15;55.33;102992.72;5037060;27;97048;-76
2022/02/12 05:22:36;;;;;;;16.20;3.03;;;;;;;5.21;54.76;102978.84;5033344;27;96764;-76
2022/02/12 05:25:05;;;;;;;14.13;3.05;;;;;;;5.34;55.07;102985.25;5031917;27;101072;-75
2022/02/12 05:27:32;;;;;;;24.75;3.60;;;;;;;5.26;55.04;102985.06;5032487;27;98812;-75
2022/02/12 05:30:00;;;;;;;20.92;3.50;;;;;;;5.05;55.56;102988.13;5028254;27;96853;-76
2022/02/12 05:32:26;;;;;;;18.58;3.10;;;;;;;5.09;55.11;102989.97;5042079;27;96808;-77
2022/02/12 05:34:53;;;;;;;19.80;3.50;;;;;;;5.42;54.85;102987.19;5040886;27;99474;-77
2022/02/12 05:37:20;;;;;;;13.80;3.10;;;;;;;5.11;55.15;102985.66;5039203;27;99140;-77
2022/02/12 05:39:46;;;;;;;8.65;2.80;;;;;;;5.09;55.20;102986.44;5034402;27;96703;-76
2022/02/12 05:42:13;;;;;;;17.80;3.10;;;;;;;5.22;55.14;102986.75;5041432;27;99092;-76
2022/02/12 05:44:39;;;;;;;22.58;4.10;;;;;;;5.11;54.89;102990.88;5034091;27;99337;-76
2022/02/12 05:47:07;;;;;;;17.83;3.17;;;;;;;5.05;55.46;102990.75;5046985;27;99334;-75
2022/02/12 05:49:33;;;;;;;12.75;2.85;;;;;;;5.16;54.74;102990.97;5051705;27;97185;-76
2022/02/12 05:52:00;;;;;;;17.10;3.35;;;;;;;5.37;54.86;102994.06;5053655;27;97772;-77
2022/02/12 05:54:26;;;;;;;17.90;4.10;;;;;;;5.13;54.98;102994.41;5035007;27;98887;-76
2022/02/12 05:56:52;;;;;;;16.92;3.35;;;;;;;5.22;54.88;102989.38;5043000;27;99545;-75
2022/02/12 05:59:19;;;;;;;21.38;3.78;;;;;;;5.24;55.11;102991.16;5036861;27;96841;-75
2022/02/12 06:01:46;;;;;;;19.40;3.85;;;;;;;4.87;55.82;102994.66;5033604;27;97084;-76
2022/02/12 06:04:14;;;;;;;17.17;3.22;;;;;;;5.14;55.17;102990.06;5034290;27;102133;-76
2022/02/12 06:06:41;;;;;;;11.48;2.90;;;;;;;4.86;55.62;102983.28;5034517;27;101284;-77
2022/02/12 06:09:07;;;;;;;17.10;3.97;;;;;;;5.11;55.20;102983.03;5032541;27;96841;-76
2022/02/12 06:11:33;;;;;;;13.45;3.75;;;;;;;5.22;54.65;102983.25;5034133;27;98967;-78
2022/02/12 06:14:00;;;;;;;8.82;3.10;;;;;;;5.12;54.80;102992.63;5032837;27;97748;-77
2022/02/12 06:16:26;;;;;;;9.65;2.88;;;;;;;5.15;54.66;102992.72;5036580;27;100205;-75
2022/02/12 06:18:53;;;;;;;14.23;3.60;;;;;;;5.10;54.85;102994.34;5034378;27;97196;-76
2022/02/12 06:21:20;;;;;;;11.10;3.33;;;;;;;5.04;55.37;102988.09;5038522;27;96787;-76
2022/02/12 06:23:47;;;;;;;18.45;4.75;;;;;;;5.10;54.66;102994.34;5039158;27;97959;-77
2022/02/12 06:26:13;;;;;;;16.08;3.95;;;;;;;4.87;55.27;102989.41;5040095;27;98773;-76
2022/02/12 06:28:40;;;;;;;17.00;3.38;;;;;;;5.13;55.01;102998.75;5036379;27;96851;-77
2022/02/12 06:31:06;;;;;;;13.07;3.20;;;;;;;4.91;55.69;102988.66;5036269;27;97115;-77
2022/02/12 06:33:33;;;;;;;18.83;3.13;;;;;;;4.93;55.42;102998.31;5035690;27;98139;-78
2022/02/12 06:36:00;;;;;;;14.48;3.40;;;;;;;4.74;56.22;102996.09;5037098;27;99025;-76
2022/02/12 06:38:27;;;;;;;18.77;3.50;;;;;;;4.58;55.86;103001.81;5031872;27;96828;-77
2022/02/12 06:40:54;;;;;;;12.82;3.05;;;;;;;4.75;55.96;103008.34;5039723;27;96801;-77
2022/02/12 06:43:20;;;;;;;10.90;3.28;;;;;;;4.81;55.78;103005.88;5033935;27;98496;-77
2022/02/12 06:45:47;;;;;;;14.02;3.95;;;;;;;4.89;55.66;103006.06;5040601;27;99306;-76
2022/02/12 06:48:13;;;;;;;20.15;3.83;;;;;;;4.62;56.30;103012.41;5040267;27;98784;-75
2022/02/12 06:50:40;;;;;;;16.08;3.97;;;;;;;4.86;55.76;102999.00;5035268;27;96809;-76
2022/02/12 06:53:06;;;;;;;21.88;3.45;;;;;;;4.62;56.60;103006.28;5039216;27;98365;-75
2022/02/12 06:55:34;;;;;;;14.18;3.83;;;;;;;4.59;56.54;103007.09;5036475;27;98381;-77
2022/02/12 06:58:00;;;;;;;16.27;3.90;;;;;;;4.71;56.44;103003.91;5040123;27;96777;-76
2022/02/12 07:00:27;;;;;;;11.75;3.78;;;;;;;4.91;55.63;103001.75;5039443;27;97911;-75
2022/02/12 07:02:54;;;;;;;14.45;3.85;;;;;;;4.71;56.21;102996.94;5042715;27;99391;-75
2022/02/12 07:05:21;;;;;;;15.88;4.10;;;;;;;4.92;55.86;103004.41;5040970;27;98716;-76
2022/02/12 07:07:49;;;;;;;13.30;4.15;;;;;;;5.05;55.04;103009.09;5043079;27;97927;-75
2022/02/12 07:10:18;;;;;;;13.23;4.00;;;;;;;5.05;54.92;103003.84;5036721;27;97780;-75
2022/02/12 07:12:45;;;;;;;10.32;3.90;;;;;;;4.97;55.34;103004.53;5043889;27;101255;-76
2022/02/12 07:15:12;;;;;;;18.23;4.55;;;;;;;4.92;55.40;103006.16;5041000;27;99123;-76
2022/02/12 07:17:39;;;;;;;17.77;3.95;;;;;;;5.08;54.91;103013.50;5053407;27;96677;-76
2022/02/12 07:20:08;;;;;;;20.63;3.63;;;;;;;5.15;54.94;103021.53;5043710;27;97012;-75
2022/02/12 07:22:35;;;;;;;17.75;4.07;;;;;;;4.93;55.19;103016.63;5057086;27;100252;-75
2022/02/12 07:25:01;;;;;;;20.10;4.22;;;;;;;4.88;55.61;103020.91;5055751;27;102097;-74
2022/02/12 07:27:28;;;;;;;13.63;3.63;;;;;;;4.62;55.81;103024.63;5039594;27;98863;-75
2022/02/12 07:29:56;;;;;;;17.25;3.53;;;;;;;4.93;55.05;103027.13;5040070;27;97558;-75
2022/02/12 07:32:22;;;;;;;18.42;4.03;;;;;;;4.91;55.49;103027.94;5043146;27;99200;-75
2022/02/12 07:34:48;;;;;;;17.33;3.90;;;;;;;5.14;54.52;103022.38;5036479;27;98869;-75
2022/02/12 07:37:15;;;;;;;17.25;4.07;;;;;;;5.05;54.11;103019.56;5045291;27;96752;-75
2022/02/12 07:39:41;;;;;;;18.17;4.18;;;;;;;4.65;56.25;103038.69;5031240;27;97784;-76
2022/02/12 07:42:07;;;;;;;13.82;3.92;;;;;;;4.96;54.78;103027.22;5043386;27;99179;-76
2022/02/12 07:44:34;;;;;;;14.20;4.15;;;;;;;5.09;54.51;103036.25;5035598;27;99220;-77
2022/02/12 07:47:02;;;;;;;16.52;3.78;;;;;;;5.38;53.80;103031.66;5044243;27;98840;-76
2022/02/12 07:49:29;;;;;;;15.30;3.38;;;;;;;5.09;53.82;103034.50;5039643;27;99027;-75
2022/02/12 07:51:55;;;;;;;15.02;3.22;;;;;;;5.19;53.85;103026.00;5035581;27;99494;-76
2022/02/12 07:54:21;;;;;;;16.15;3.75;;;;;;;5.15;53.83;103033.75;5032273;27;99341;-76
2022/02/12 07:56:49;;;;;;;12.02;3.58;;;;;;;5.58;53.18;103025.09;5033393;27;97038;-75
2022/02/12 07:59:15;;;;;;;11.95;3.70;;;;;;;5.59;52.91;103026.88;5066224;22;97369;-74
2022/02/12 08:01:42;;;;;;;14.48;3.70;;;;;;;5.34;53.41;103016.72;5062046;27;98976;-75
2022/02/12 08:04:09;;;;;;;15.68;3.78;;;;;;;5.63;52.83;103023.47;5066000;27;99334;-75
2022/02/12 08:09:20;;;;;;;11.23;3.80;;;;;;;5.79;52.15;103012.41;5052207;27;96866;-74
2022/02/12 08:11:53;;;;;;;17.33;3.85;;;;;;;5.84;52.06;103009.91;5045458;27;99332;-75
2022/02/12 08:14:19;;;;;;;10.10;3.13;;;;;;;5.97;51.92;103022.44;5037510;28;99239;-75
2022/02/12 08:16:45;;;;;;;14.52;4.03;;;;;;;6.44;50.64;103012.81;5052091;27;97146;-75
2022/02/12 08:19:13;;;;;;;17.95;3.70;;;;;;;6.41;50.41;103010.13;5041770;28;98638;-76
2022/02/12 08:21:39;;;;;;;13.48;5.30;;;;;;;6.28;50.83;103016.03;5041264;28;99004;-76
2022/02/12 08:24:06;;;;;;;13.02;4.45;;;;;;;6.31;50.75;103005.56;5041409;27;98939;-78
2022/02/12 08:26:32;;;;;;;13.18;4.13;;;;;;;6.40;50.15;103017.13;5039102;27;97303;-76
2022/02/12 08:28:58;;;;;;;18.05;4.35;;;;;;;6.29;51.14;103020.44;5044054;27;98179;-80
2022/02/12 08:31:25;;;;;;;13.30;3.95;;;;;;;6.05;51.17;103022.56;5051501;28;98905;-79
2022/02/12 08:33:51;;;;;;;16.13;4.30;;;;;;;6.09;51.26;103019.16;5039589;27;97658;-79
2022/02/12 08:36:19;;;;;;;16.90;4.30;;;;;;;6.27;51.04;103011.63;5032493;27;97596;-77
2022/02/12 08:38:46;;;;;;;13.45;4.10;;;;;;;6.22;50.87;103011.56;5034193;27;96930;-76
2022/02/12 08:41:12;;;;;;;16.88;3.78;;;;;;;6.44;50.56;103002.28;5037859;28;98681;-77
2022/02/12 08:43:39;;;;;;;15.65;3.70;;;;;;;6.77;49.69;103007.22;5039742;28;98894;-77
2022/02/12 08:46:05;;;;;;;16.58;4.18;;;;;;;6.53;49.92;103012.97;5038379;28;97243;-78
2022/02/12 08:48:31;;;;;;;22.00;3.80;;;;;;;6.77;50.04;103017.72;5035146;28;97581;-77
2022/02/12 08:50:58;;;;;;;20.83;4.47;;;;;;;6.79;49.43;103016.03;5034946;28;98985;-80
2022/02/12 08:53:26;;;;;;;19.55;4.47;;;;;;;7.01;48.87;103012.88;5032645;27;98951;-78
2022/02/12 08:55:53;;;;;;;16.70;3.38;;;;;;;7.24;48.56;103004.44;5040827;28;96774;-77
2022/02/12 08:58:19;;;;;;;11.90;4.07;;;;;;;7.09;48.37;103012.97;5035274;27;96907;-80
2022/02/12 09:00:46;;;;;;;14.60;4.18;;;;;;;7.37;47.71;103009.00;5033119;28;97734;-80
2022/02/12 09:03:13;;;;;;;17.33;3.97;;;;;;;7.39;48.12;103015.16;5037190;27;99947;-78
2022/02/12 09:05:39;;;;;;;16.30;4.60;;;;;;;7.73;47.01;103008.59;5033272;27;97225;-79
2022/02/12 09:08:06;;;;;;;11.48;3.72;;;;;;;7.48;47.20;103010.03;5035419;27;97419;-82
2022/02/12 09:10:34;;;;;;;17.95;3.70;;;;;;;7.58;47.21;103015.44;5039861;27;99059;-82
2022/02/12 09:13:00;;;;;;;15.25;3.75;;;;;;;7.80;46.78;103005.16;5037114;27;97792;-79
2022/02/12 09:15:27;;;;;;;19.50;3.80;;;;;;;7.89;46.90;103005.25;5039451;27;96764;-78
2022/02/12 09:17:53;;;;;;;17.58;4.57;;;;;;;8.22;45.90;103010.00;5034734;27;97912;-80
2022/02/12 09:20:19;;;;;;;13.75;3.83;;;;;;;8.17;45.84;103003.81;5035758;27;101481;-78
2022/02/12 09:22:46;;;;;;;15.27;3.55;;;;;;;7.67;46.65;103021.69;5036006;27;98975;-79
2022/02/12 09:25:13;;;;;;;9.93;3.03;;;;;;;8.10;45.77;103009.88;5031970;28;96958;-79
2022/02/12 09:27:41;;;;;;;15.88;2.65;;;;;;;8.02;45.61;103005.41;5034284;28;97737;-76
2022/02/12 09:30:08;;;;;;;18.40;3.00;;;;;;;8.13;45.25;103007.28;5032353;27;99466;-78
2022/02/12 09:32:34;;;;;;;14.90;3.25;;;;;;;8.46;44.71;103007.66;5033930;27;99301;-77
2022/02/12 09:35:01;;;;;;;19.98;3.58;;;;;;;8.42;44.93;102999.69;5035250;27;96792;-76
2022/02/12 09:37:27;;;;;;;15.77;2.55;;;;;;;8.59;44.43;103001.63;5034533;28;96731;-77
2022/02/12 09:39:54;;;;;;;15.82;3.28;;;;;;;8.78;43.93;102994.75;5037133;28;99005;-77
2022/02/12 09:42:21;;;;;;;14.65;3.10;;;;;;;7.92;45.07;103000.94;5033564;27;99473;-78
2022/02/12 09:44:49;;;;;;;13.93;2.50;;;;;;;7.87;45.08;102996.47;5038180;27;96795;-77
2022/02/12 09:47:31;;;;;;;16.27;3.13;;;;;;;8.21;44.47;102995.06;5037478;27;97014;-80
2022/02/12 09:49:59;;;;;;;15.85;2.53;;;;;;;7.85;45.60;102992.94;5036442;28;98693;-77
2022/02/12 09:52:30;;;;;;;15.07;2.95;;;;;;;8.28;44.54;102984.59;5036746;27;98645;-78
2022/02/12 09:54:57;;;;;;;7.20;2.38;;;;;;;8.33;44.35;102990.84;5033835;28;96590;-80
2022/02/12 09:57:23;;;;;;;11.93;2.78;;;;;;;8.64;43.26;102985.84;5037535;27;97899;-79
2022/02/12 09:59:57;;;;;;;15.60;2.45;;;;;;;8.72;42.73;102978.88;5030702;27;99810;-77
2022/02/12 10:02:23;;;;;;;13.25;2.65;;;;;;;9.11;42.42;102976.50;5035286;28;99126;-77
2022/02/12 10:05:21;;;;;;;10.07;2.38;;;;;;;9.25;42.50;102976.59;5034740;28;97140;-77
2022/02/12 10:07:48;;;;;;;11.02;2.30;;;;;;;9.19;41.86;102981.81;5037012;27;97659;-78
2022/02/12 10:10:17;;;;;;;10.80;2.10;;;;;;;9.01;41.76;102974.69;5031662;28;100230;-75
2022/02/12 10:12:43;;;;;;;12.68;2.83;;;;;;;8.81;42.46;102968.38;5036033;27;99331;-76
2022/02/12 10:15:23;;;;;;;15.23;2.33;;;;;;;8.92;42.57;102966.72;5034521;27;96746;-74
2022/02/12 10:17:51;;;;;;;17.65;2.78;;;;;;;9.45;41.49;102966.97;5034127;27;97309;-79
2022/02/12 10:20:28;;;;;;;14.27;2.97;;;;;;;9.29;41.84;102966.91;5035010;27;99986;-80
2022/02/12 10:23:02;;;;;;;10.32;2.03;;;;;;;9.65;41.00;102974.97;5040703;27;99104;-82
2022/02/12 10:25:29;;;;;;;9.18;2.03;;;;;;;9.32;41.45;102969.59;5035874;27;96855;-79
2022/02/12 10:27:56;;;;;;;12.35;2.90;;;;;;;9.55;40.91;102970.56;5032611;28;97067;-78
2022/02/12 10:30:25;;;;;;;8.20;2.22;;;;;;;9.89;39.35;102961.88;5032861;28;98980;-76
2022/02/12 10:32:55;;;;;;;13.25;2.55;;;;;;;9.92;40.51;102961.88;5037467;28;98947;-79
2022/02/12 10:35:21;;;;;;;13.13;2.15;;;;;;;9.98;39.70;102961.88;5036897;27;97021;-78
2022/02/12 10:37:48;;;;;;;11.40;2.67;;;;;;;10.30;39.18;102948.78;5048591;27;96733;-82
2022/02/12 10:40:16;;;;;;;14.88;3.05;;;;;;;10.32;38.84;102946.09;5053210;27;98493;-81
2022/02/12 10:42:46;;;;;;;17.50;2.70;;;;;;;10.43;38.83;102943.47;5054201;27;97918;-75
2022/02/12 10:45:16;;;;;;;11.88;2.10;;;;;;;10.24;38.27;102940.81;5035668;27;97227;-77
2022/02/12 10:47:45;;;;;;;19.80;4.13;;;;;;;10.27;38.81;102945.22;5044081;27;97604;-76
2022/02/12 10:50:15;;;;;;;10.07;2.30;;;;;;;9.78;38.80;102946.91;5039468;28;97772;-78
2022/02/12 10:52:44;;;;;;;15.35;2.88;;;;;;;10.03;38.57;102940.78;5042935;28;98010;-77
2022/02/12 10:55:31;;;;;;;14.35;2.13;;;;;;;10.10;38.34;102934.63;5037948;27;96701;-75
2022/02/12 10:57:59;;;;;;;12.05;2.13;;;;;;;9.98;38.92;102922.25;5040251;28;96895;-76
2022/02/12 11:00:27;;;;;;;14.98;2.63;;;;;;;10.12;38.44;102913.47;5037050;27;98923;-77
2022/02/12 11:02:55;;;;;;;10.05;2.50;;;;;;;10.36;38.43;102917.06;5040202;27;97828;-76
2022/02/12 11:05:22;;;;;;;10.85;2.65;;;;;;;9.56;39.56;102915.16;5044740;28;97099;-76
2022/02/12 11:07:51;;;;;;;19.77;3.78;;;;;;;9.97;38.95;102909.97;5052733;27;98240;-75
2022/02/12 11:10:17;;;;;;;11.55;2.95;;;;;;;9.75;40.02;102921.34;5044054;28;97944;-75
2022/02/12 11:12:44;;;;;;;15.05;2.63;;;;;;;9.01;40.99;102900.84;5047508;28;98235;-77
2022/02/12 11:15:11;;;;;;;18.83;2.22;;;;;;;8.91;41.07;102906.06;5051465;27;96597;-76
2022/02/12 11:17:39;;;;;;;11.73;2.58;;;;;;;9.27;39.93;102902.72;5054948;27;96891;-76
2022/02/12 11:20:11;;;;;;;14.20;2.60;;;;;;;9.22;40.19;102892.16;5052711;27;99494;-77
2022/02/12 11:22:38;;;;;;;9.65;2.00;;;;;;;9.47;38.91;102887.81;5048983;27;99173;-76
2022/02/12 11:25:26;;;;;;;10.10;2.28;;;;;;;9.46;39.26;102879.03;5050096;27;98569;-78
2022/02/12 11:28:06;;;;;;;9.55;1.88;;;;;;;9.56;39.45;102878.19;5043606;27;100172;-76
2022/02/12 11:30:32;;;;;;;11.75;2.45;;;;;;;9.17;39.49;102871.03;5038270;27;98068;-75
2022/02/12 11:33:00;;;;;;;10.32;1.98;;;;;;;9.15;39.61;102880.69;5043617;27;98354;-77
2022/02/12 11:35:27;;;;;;;11.98;1.88;;;;;;;9.57;38.18;102865.88;5037223;27;96915;-77